KCEW

Bob Sikes Airport

Crestview, Florida, USA

KCEW 110853Z AUTO 00000KT 10SM CLR M02/M03 A3030 RMK AO2 SLP262 T10221033 56006

Observed Flight Rules
Dec-11 @ 08:53 UTC (29 minutes ago) Visual Flight Rules
Wind Visibility Clouds
Calm 10 miles
  • Clear skies
Temperatures Readings
Current -2°C / 28°F
Dewpoint -3°C / 27°F
Humidity 93%
Altimeter 30.3" Hg
Pressure 1026.2 hPa
Elevation 55
Observed Flight Rules
Dec-11 @ 08:53 UTC
(29 minutes ago)
VFR
Wind Visibility
Calm 10 miles
Clouds
  • Clear skies
Temperature Dewpoint
-2°C / 28°F -3°C / 27°F
Humidity Altimeter Pressure
93% 30.3" Hg 1026.2 hPa